Terminal Aerodrome Forecast
Issued by NWS Charleston, WV

Current Version | Previous Version | Graphics & Text | Print | Product List | Glossary On
Versions: 1 2 3 4 5 6 7 8 9 10 11 12 13 14 15 16 17 18 19 20
000
FTUS41 KRLX 260500
TAFBKW
TAF
KBKW 260534Z 2606/2706 06004KT P6SM BKN060
     FM260900 09004KT 4SM -RASN BR OVC030
     FM261200 36005KT 3SM -SNRA BR SCT001 OVC025
     FM261600 33004KT 3/4SM -SHSN BR SCT001 OVC015
     FM262300 VRB03KT 4SM BR OVC025
     FM270200 00000KT 3SM BR BKN025=

USA.gov is the U.S. government's official web portal to all federal, state and local government web resources and services.